Sabahat Telli — TCSQ6 — position and weather

sailwx.info

Track history (hours):
 
Tides and Currents Weather Stations Pressure Air Temp Water Temp Dewpoint Dewpoint Depression Visibility Wind Speed Wind Dir Waves Ship Positions

Sabahat Telli

Last reported at 2014-Dec-10 08:25 UTC. Time now 2014-Dec-21 04:47 UTC.
Position N 37°21' E 026°53'.
Warning: this ship's position is 10 days out of date.

Length 99 m; draft 5.9 m.

Type: Tanker. MMSI: 271000961.

Date/timePositionNaut miles runAvg speedWind from/ knotsBaromVisibWave heightAir tempDewpointWater temp
2014-Dec-10 08:25N 37°21' E 026°53'2111.0
2014-Dec-10 06:30N 37°38' E 026°36'1210.7
2014-Dec-10 05:25N 37°48' E 026°29'1110.8
2014-Dec-10 04:23N 37°58' E 026°23'  
2014-Dec-06 20:22N 40°25' E 029°04'0 0.0
2014-Dec-06 19:28N 40°25' E 029°04'0 0.0
2014-Dec-06 18:28N 40°25' E 029°04'0 0.0
2014-Dec-06 16:33N 40°25' E 029°04'0 0.0
2014-Dec-06 15:32N 40°25' E 029°04'0 0.0
2014-Dec-06 14:16N 40°25' E 029°04'0 0.0
2014-Dec-06 13:32N 40°25' E 029°04'0 0.0
2014-Dec-06 11:19N 40°25' E 029°04'0 0.0
2014-Dec-06 10:30N 40°25' E 029°04'0 0.0
2014-Dec-06 09:30N 40°25' E 029°04'0 0.0
2014-Dec-06 08:11N 40°25' E 029°04'0 0.0
2014-Dec-06 07:23N 40°25' E 029°04'0 0.0
2014-Dec-06 06:31N 40°25' E 029°04'1 1.5
2014-Dec-06 05:33N 40°26' E 029°03'2 1.3
2014-Dec-06 04:06N 40°25' E 029°01'12 6.4
2014-Dec-06 02:12N 40°29' E 028°45'6 8.7
2014-Dec-06 01:33N 40°35' E 028°45'1010.3
2014-Dec-06 00:33N 40°45' E 028°47'1010.2
2014-Dec-05 23:32N 40°54' E 028°52'2 1.0
2014-Dec-05 21:17N 40°57' E 028°52'1 0.2
2014-Dec-05 16:32N 40°56' E 028°53'2110.0
2014-Dec-05 14:25N 41°15' E 029°07'  
2014-Dec-02 05:04N 46°20' E 031°03'3 5.8
2014-Dec-02 04:33N 46°22' E 030°60'11 8.6
2014-Dec-02 03:17N 46°32' E 030°56'  
Track history (hours):
 
Tides and Currents Weather Stations Pressure Air Temp Water Temp Dewpoint Dewpoint Depression Visibility Wind Speed Wind Dir Waves Ship Positions

Sabahat Telli

Last reported at 2014-Dec-10 08:25 UTC. Time now 2014-Dec-21 04:47 UTC.
Position N 37°21' E 026°53'.
Warning: this ship's position is 10 days out of date.

Length 99 m; draft 5.9 m.

Type: Tanker. MMSI: 271000961.

Date/timePositionNaut miles runAvg speedWind from/ knotsBaromVisibWave heightAir tempDewpointWater temp
2014-Dec-10 08:25N 37°21' E 026°53'2111.0
2014-Dec-10 06:30N 37°38' E 026°36'1210.7
2014-Dec-10 05:25N 37°48' E 026°29'1110.8
2014-Dec-10 04:23N 37°58' E 026°23'  
2014-Dec-06 20:22N 40°25' E 029°04'0 0.0
2014-Dec-06 19:28N 40°25' E 029°04'0 0.0
2014-Dec-06 18:28N 40°25' E 029°04'0 0.0
2014-Dec-06 16:33N 40°25' E 029°04'0 0.0
2014-Dec-06 15:32N 40°25' E 029°04'0 0.0
2014-Dec-06 14:16N 40°25' E 029°04'0 0.0
2014-Dec-06 13:32N 40°25' E 029°04'0 0.0
2014-Dec-06 11:19N 40°25' E 029°04'0 0.0
2014-Dec-06 10:30N 40°25' E 029°04'0 0.0
2014-Dec-06 09:30N 40°25' E 029°04'0 0.0
2014-Dec-06 08:11N 40°25' E 029°04'0 0.0
2014-Dec-06 07:23N 40°25' E 029°04'0 0.0
2014-Dec-06 06:31N 40°25' E 029°04'1 1.5
2014-Dec-06 05:33N 40°26' E 029°03'2 1.3
2014-Dec-06 04:06N 40°25' E 029°01'12 6.4
2014-Dec-06 02:12N 40°29' E 028°45'6 8.7
2014-Dec-06 01:33N 40°35' E 028°45'1010.3
2014-Dec-06 00:33N 40°45' E 028°47'1010.2
2014-Dec-05 23:32N 40°54' E 028°52'2 1.0
2014-Dec-05 21:17N 40°57' E 028°52'1 0.2
2014-Dec-05 16:32N 40°56' E 028°53'2110.0
2014-Dec-05 14:25N 41°15' E 029°07'  
2014-Dec-02 05:04N 46°20' E 031°03'3 5.8
2014-Dec-02 04:33N 46°22' E 030°60'11 8.6
2014-Dec-02 03:17N 46°32' E 030°56'  

Dump ship's entire track history